VTSH  Songkhla Airport

Add Bookmark

Thailand

Status IATA
Operational SGZ
Latitude Longitude
7° 11' 11" N 100° 36' 28" E
7.186560 100.608002
Local (DST + 7) UTC (GMT + 7)
Aug 31, 2014 07:15 Aug 31, 2014 00:15
Sunrise-Sunset Local UTC
Begin Civil Twilight 05:47 22:47
Sunrise 06:09 23:09
Sunset 06:26 11:26
End Civil Twilight 06:47 11:47

Current Weather

METAR Observed VFR
VTSH 300400Z 04004KT 9999 FEW020 BKN120 BKN300 29/23 Q1010 A2983 Sat, Aug 30, 2014 @ 04:00 UTC
(20 Hours, 15 Minutes ago)
Visual Flight Rules
Wind Visibility Clouds Conditions
040° at 4 knots (7 kph) 10 km or more
  • Few at 2,000' AGL
  • Broken at 12,000' AGL
  • Broken at 30,000' AGL
  • No significant weather
Temperatures Readings Precipitation
Current Temp 29°C (84°F)
Dewpoint 23°C (73°F)
Heat Index 32°C (90°F)
Humidity 70%
Altimeter 29.82"Hg
Sea Level Pressure 1010mb
Field Elevation 16.4'
None Recorded

Additional weather within a 92.6km radius of VTSH

Map ICAO Location
VTSS 36.9km S (220°)

24 Hour Weather History

Loading
-

24 Hour Weather Graphs

Loading
-

CheckWX.com is intended as a tool to help pilots better visualize weather data. It is not intended as a substitute for an official weather briefing obtained from a Flight Service Station. CheckWX.com does not meet the FAA requirements for an official pre-flight weather briefing. Therefore, it's important that pilots still call and obtain an official FSS pre-flight weather briefing.